Time;durP1;ratioP1;P1;durP2;ratioP2;P2;SDS_P1;SDS_P2;PMS_P1;PMS_P2;Temp;Humidity;BMP_temperature;BMP_pressure;BME280_temperature;BME280_humidity;BME280_pressure;Samples;Min_cycle;Max_cycle;Signal;HPM_P1;HPM_P2
2023/06/03 00:01:32;;;;;;;4.93;1.20;;;10.80;99.90;;;;;;5076877;28;20126;-49
2023/06/03 00:03:58;;;;;;;5.80;1.10;;;10.60;99.90;;;;;;5095776;28;20128;-50
2023/06/03 00:06:24;;;;;;;4.22;1.45;;;10.70;99.90;;;;;;5093687;28;20748;-52
2023/06/03 00:08:50;;;;;;;3.35;1.00;;;10.70;99.90;;;;;;5076367;28;20039;-51
2023/06/03 00:11:16;;;;;;;3.03;1.02;;;10.70;99.90;;;;;;5092993;28;20639;-50
2023/06/03 00:13:42;;;;;;;4.75;1.38;;;10.80;99.90;;;;;;5092351;28;20036;-48
2023/06/03 00:16:07;;;;;;;3.22;1.20;;;10.70;99.90;;;;;;5095163;28;21420;-51
2023/06/03 00:18:33;;;;;;;5.03;1.30;;;10.90;99.90;;;;;;5095077;28;20102;-49
2023/06/03 00:21:01;;;;;;;4.10;1.33;;;10.80;99.90;;;;;;5093708;28;20054;-50
2023/06/03 00:23:27;;;;;;;5.50;1.38;;;10.90;99.90;;;;;;5094634;28;20052;-52
2023/06/03 00:25:53;;;;;;;4.00;1.10;;;10.90;99.90;;;;;;5093949;28;20062;-46
2023/06/03 00:28:19;;;;;;;5.35;1.25;;;10.80;99.90;;;;;;5075785;28;20043;-51
2023/06/03 00:30:45;;;;;;;3.53;1.00;;;10.80;99.90;;;;;;5093485;28;20516;-48
2023/06/03 00:33:11;;;;;;;5.72;1.20;;;10.60;99.90;;;;;;5093978;28;20040;-51
2023/06/03 00:35:37;;;;;;;3.80;1.30;;;10.70;99.90;;;;;;5093533;28;20110;-48
2023/06/03 00:38:03;;;;;;;4.57;1.10;;;10.60;99.90;;;;;;5092959;28;20507;-48
2023/06/03 00:40:28;;;;;;;3.83;1.00;;;10.70;99.90;;;;;;5092486;28;20097;-49
2023/06/03 00:42:54;;;;;;;4.95;1.00;;;10.80;99.90;;;;;;5075034;28;20036;-46
2023/06/03 00:45:20;;;;;;;2.38;1.00;;;10.80;99.90;;;;;;5092398;28;20113;-46
2023/06/03 00:47:47;;;;;;;1.92;1.00;;;10.80;99.90;;;;;;5092620;28;20308;-48
2023/06/03 00:50:14;;;;;;;5.07;1.08;;;10.50;99.90;;;;;;5091405;28;20790;-47
2023/06/03 00:52:40;;;;;;;3.28;0.93;;;10.70;99.90;;;;;;5091382;28;20059;-47
2023/06/03 00:55:07;;;;;;;5.07;1.10;;;10.80;99.90;;;;;;5093485;28;20044;-48
2023/06/03 00:57:33;;;;;;;3.72;1.05;;;10.90;99.90;;;;;;5092195;28;20032;-46
2023/06/03 00:59:59;;;;;;;9.90;1.73;;;10.90;99.90;;;;;;5074372;28;20048;-47
2023/06/03 01:02:25;;;;;;;3.15;1.00;;;10.80;99.90;;;;;;5093658;28;20043;-49
2023/06/03 01:04:55;;;;;;;4.82;1.15;;;11.30;99.90;;;;;;5092363;28;20054;-51
2023/06/03 01:07:40;;;;;;;4.38;1.00;;;10.80;99.90;;;;;;5093087;28;20047;-47
2023/06/03 01:10:21;;;;;;;7.97;2.55;;;10.90;99.90;;;;;;5092004;28;20048;-48
2023/06/03 01:13:12;;;;;;;3.63;0.80;;;10.80;99.90;;;;;;5092351;28;20040;-48
2023/06/03 01:15:42;;;;;;;4.28;0.95;;;10.70;99.90;;;;;;5076216;28;20127;-47
2023/06/03 01:18:08;;;;;;;4.78;1.23;;;10.90;99.90;;;;;;5092779;28;20640;-47
2023/06/03 01:20:35;;;;;;;6.47;1.10;;;10.90;99.90;;;;;;5094045;28;20035;-46
2023/06/03 01:23:23;;;;;;;2.38;0.93;;;11.00;99.90;;;;;;5091747;28;20049;-49
2023/06/03 01:25:57;;;;;;;2.25;1.00;;;10.80;99.90;;;;;;5091834;28;20445;-48
2023/06/03 01:28:27;;;;;;;2.42;0.80;;;10.60;99.90;;;;;;5091858;28;20066;-46
2023/06/03 01:30:54;;;;;;;2.35;0.90;;;10.70;99.90;;;;;;5092421;28;20310;-51
2023/06/03 01:33:21;;;;;;;2.67;0.90;;;10.70;99.90;;;;;;5092572;28;20044;-47
2023/06/03 01:35:49;;;;;;;3.15;0.90;;;10.80;99.90;;;;;;5092002;28;21033;-46
2023/06/03 01:38:16;;;;;;;2.75;1.00;;;10.60;99.90;;;;;;5093667;28;20074;-45
2023/06/03 01:40:43;;;;;;;2.65;0.90;;;10.60;99.90;;;;;;5090890;28;20047;-49
2023/06/03 01:43:09;;;;;;;3.63;1.00;;;10.60;99.90;;;;;;5092451;28;20459;-47
2023/06/03 01:45:34;;;;;;;4.07;1.05;;;10.30;99.90;;;;;;5092788;28;20442;-46
2023/06/03 01:48:00;;;;;;;1.90;0.70;;;10.40;99.90;;;;;;5092721;28;20027;-47
2023/06/03 01:50:26;;;;;;;2.60;0.82;;;10.30;99.90;;;;;;5090120;28;20036;-51
2023/06/03 01:52:52;;;;;;;4.07;1.23;;;10.40;99.90;;;;;;5091852;28;20043;-46
2023/06/03 01:55:18;;;;;;;3.72;1.10;;;10.40;99.90;;;;;;5090925;28;20035;-49
2023/06/03 01:57:47;;;;;;;2.83;1.35;;;10.40;99.90;;;;;;5092487;28;20395;-46
2023/06/03 02:00:13;;;;;;;4.10;1.10;;;10.30;99.90;;;;;;5089130;28;20748;-50
2023/06/03 02:02:39;;;;;;;4.22;1.13;;;10.30;99.90;;;;;;5093326;28;20031;-49
2023/06/03 02:05:05;;;;;;;2.78;0.98;;;10.20;99.90;;;;;;5072084;28;20039;-46
2023/06/03 02:07:31;;;;;;;3.85;0.75;;;10.10;99.90;;;;;;5092204;28;20307;-46
2023/06/03 02:09:58;;;;;;;3.20;1.10;;;9.90;99.90;;;;;;5089633;28;20040;-48
2023/06/03 02:12:24;;;;;;;2.50;1.02;;;10.00;99.90;;;;;;5089621;28;20052;-47
2023/06/03 02:14:56;;;;;;;2.83;1.05;;;10.00;99.90;;;;;;5089941;28;20040;-46
2023/06/03 02:17:24;;;;;;;2.85;1.15;;;9.90;99.90;;;;;;5090621;28;20048;-45
2023/06/03 02:19:50;;;;;;;3.78;0.90;;;9.80;99.90;;;;;;5090384;28;20051;-47
2023/06/03 02:22:17;;;;;;;3.15;1.02;;;9.70;99.90;;;;;;5068080;28;20054;-49
2023/06/03 02:24:46;;;;;;;4.95;0.98;;;9.70;99.90;;;;;;5089043;28;20404;-51
2023/06/03 02:27:24;;;;;;;7.85;1.25;;;9.80;99.90;;;;;;5089784;28;20067;-52
2023/06/03 02:29:52;;;;;;;2.78;1.00;;;9.90;99.90;;;;;;5090447;28;20130;-50
2023/06/03 02:32:20;;;;;;;3.55;1.13;;;9.80;99.90;;;;;;5088749;28;20043;-48
2023/06/03 02:34:48;;;;;;;1.85;0.80;;;9.60;99.90;;;;;;5092531;28;20031;-51
2023/06/03 02:37:15;;;;;;;4.30;1.10;;;10.30;99.90;;;;;;5091080;28;20086;-48
2023/06/03 02:39:42;;;;;;;2.92;1.42;;;9.80;99.90;;;;;;5092507;28;20050;-52
2023/06/03 02:42:08;;;;;;;4.10;1.00;;;9.80;99.90;;;;;;5090896;28;20035;-49
2023/06/03 02:44:35;;;;;;;3.42;1.10;;;9.70;99.90;;;;;;5090729;28;20101;-47
2023/06/03 02:47:01;;;;;;;3.10;1.00;;;9.80;99.90;;;;;;5090970;28;20610;-47
2023/06/03 02:49:26;;;;;;;3.38;1.00;;;9.70;99.90;;;;;;5092569;28;20081;-50
2023/06/03 02:51:52;;;;;;;3.72;1.30;;;9.90;99.90;;;;;;5056547;28;20210;-51
2023/06/03 02:54:18;;;;;;;3.85;1.10;;;9.70;99.90;;;;;;5091149;28;20496;-48
2023/06/03 02:56:43;;;;;;;3.83;1.10;;;9.70;99.90;;;;;;5091613;28;20220;-50
2023/06/03 02:59:10;;;;;;;3.90;1.10;;;9.10;99.90;;;;;;5073097;28;20044;-49
2023/06/03 03:01:37;;;;;;;5.05;1.20;;;9.70;99.90;;;;;;5091328;28;20130;-49
2023/06/03 03:04:03;;;;;;;2.90;0.90;;;9.80;99.90;;;;;;5091838;28;20046;-47
2023/06/03 03:06:29;;;;;;;4.85;1.40;;;9.70;99.90;;;;;;5090693;28;20039;-50
2023/06/03 03:08:55;;;;;;;2.80;1.10;;;9.80;99.90;;;;;;5070190;28;20036;-46
2023/06/03 03:11:20;;;;;;;4.65;1.02;;;9.70;99.90;;;;;;5090544;28;20040;-47
2023/06/03 03:13:46;;;;;;;2.58;1.25;;;9.50;99.90;;;;;;5095214;28;20560;-47
2023/06/03 03:16:13;;;;;;;2.58;1.00;;;9.50;99.90;;;;;;5094894;28;20055;-48
2023/06/03 03:18:39;;;;;;;3.28;1.10;;;9.60;99.90;;;;;;5095987;28;20043;-49
2023/06/03 03:21:05;;;;;;;5.32;1.23;;;9.60;99.90;;;;;;5074734;28;20074;-47
2023/06/03 03:23:32;;;;;;;3.83;1.23;;;9.40;99.90;;;;;;5092565;28;20380;-50
2023/06/03 03:26:00;;;;;;;3.03;1.20;;;9.40;99.90;;;;;;5093707;28;20241;-49
2023/06/03 03:28:26;;;;;;;4.47;1.10;;;9.40;99.90;;;;;;5094053;28;20411;-46
2023/06/03 03:30:55;;;;;;;4.35;1.40;;;10.30;99.90;;;;;;5092350;28;20040;-50
2023/06/03 03:33:21;;;;;;;6.28;1.27;;;9.50;99.90;;;;;;5092921;28;20040;-51
2023/06/03 03:35:49;;;;;;;4.55;1.30;;;9.40;99.90;;;;;;5093522;28;20054;-46
2023/06/03 03:38:15;;;;;;;4.78;1.50;;;11.10;99.90;;;;;;5074939;28;20116;-48
2023/06/03 03:40:41;;;;;;;5.10;1.27;;;10.60;99.90;;;;;;5094476;28;20043;-47
2023/06/03 03:43:19;;;;;;;2.58;1.00;;;9.40;99.90;;;;;;5093096;28;20047;-47
2023/06/03 03:45:45;;;;;;;5.13;1.40;;;9.30;99.90;;;;;;5093589;28;20054;-46
2023/06/03 03:48:16;;;;;;;3.47;1.10;;;9.30;99.90;;;;;;5094928;28;20031;-49
2023/06/03 03:50:44;;;;;;;3.33;1.10;;;9.30;99.90;;;;;;5075926;28;20047;-50
2023/06/03 03:53:14;;;;;;;5.22;1.30;;;9.40;99.90;;;;;;5092353;28;20050;-48
2023/06/03 03:55:51;;;;;;;4.05;1.20;;;9.30;99.90;;;;;;5094135;28;21034;-48
2023/06/03 03:58:39;;;;;;;2.97;0.93;;;9.30;99.90;;;;;;5093206;28;20133;-46
2023/06/03 04:01:12;;;;;;;4.45;1.20;;;9.40;99.90;;;;;;5093215;28;20462;-45
2023/06/03 04:03:42;;;;;;;3.00;1.17;;;9.30;99.90;;;;;;5093876;28;20043;-45
2023/06/03 04:06:09;;;;;;;4.75;1.35;;;9.70;99.90;;;;;;5092795;28;20130;-45
2023/06/03 04:08:45;;;;;;;5.25;1.13;;;9.40;99.90;;;;;;5093208;28;20348;-45
2023/06/03 04:11:18;;;;;;;5.43;1.30;;;9.40;99.90;;;;;;5075548;28;20051;-49
2023/06/03 04:13:44;;;;;;;4.18;1.00;;;9.30;99.90;;;;;;5094427;28;20040;-48
2023/06/03 04:16:11;;;;;;;5.72;1.10;;;9.30;99.90;;;;;;5092345;28;20054;-48
2023/06/03 04:18:41;;;;;;;3.78;1.23;;;9.40;99.90;;;;;;5093431;28;20039;-51
2023/06/03 04:21:16;;;;;;;3.03;1.15;;;9.40;99.90;;;;;;5094154;28;20039;-46
2023/06/03 04:23:42;;;;;;;3.53;1.20;;;9.60;99.90;;;;;;5092133;28;20078;-48
2023/06/03 04:26:09;;;;;;;3.67;1.10;;;9.60;99.90;;;;;;5092435;28;20498;-47
2023/06/03 04:28:37;;;;;;;5.30;1.15;;;9.90;99.90;;;;;;5075481;28;20434;-47
2023/06/03 04:31:03;;;;;;;2.90;1.00;;;9.80;99.90;;;;;;5093967;28;20052;-46
2023/06/03 04:33:29;;;;;;;4.85;1.08;;;9.90;99.90;;;;;;5094103;28;20109;-47
2023/06/03 04:35:55;;;;;;;3.58;1.30;;;10.20;99.90;;;;;;5093156;28;20280;-46
2023/06/03 04:38:21;;;;;;;2.58;1.00;;;10.30;99.90;;;;;;5056075;28;20070;-47
2023/06/03 04:40:48;;;;;;;3.30;1.15;;;10.30;99.90;;;;;;5091778;28;20074;-46
2023/06/03 04:43:15;;;;;;;4.25;1.20;;;10.50;99.90;;;;;;5092611;28;20059;-45
2023/06/03 04:45:44;;;;;;;3.92;0.90;;;10.60;99.90;;;;;;5092305;28;20401;-49
2023/06/03 04:48:11;;;;;;;3.47;1.00;;;10.70;99.90;;;;;;5091024;28;20063;-47
2023/06/03 04:50:37;;;;;;;3.17;0.95;;;10.70;99.90;;;;;;5071777;28;20039;-47
2023/06/03 04:53:03;;;;;;;7.93;0.90;;;10.90;99.90;;;;;;5091410;28;20050;-46
2023/06/03 04:55:30;;;;;;;3.08;1.02;;;11.00;99.90;;;;;;5093028;28;20044;-46
2023/06/03 04:57:56;;;;;;;3.92;1.00;;;10.90;99.90;;;;;;5091660;28;20257;-49
2023/06/03 05:00:22;;;;;;;3.22;1.23;;;10.90;99.90;;;;;;5091862;28;20196;-47
2023/06/03 05:02:57;;;;;;;2.80;1.10;;;11.10;99.90;;;;;;5091577;28;20071;-50
2023/06/03 05:05:24;;;;;;;3.97;1.30;;;11.10;99.90;;;;;;5093537;28;20039;-49
2023/06/03 05:07:50;;;;;;;6.30;1.20;;;11.20;99.90;;;;;;5091228;28;20405;-47
2023/06/03 05:10:19;;;;;;;5.30;1.15;;;11.20;99.90;;;;;;5092071;28;20044;-51
2023/06/03 05:12:45;;;;;;;6.20;1.73;;;11.30;99.90;;;;;;5092988;28;20062;-46
2023/06/03 05:15:12;;;;;;;4.35;1.40;;;11.00;99.90;;;;;;5091764;28;20696;-47
2023/06/03 05:17:41;;;;;;;4.10;1.65;;;10.90;99.90;;;;;;5071576;28;20491;-48
2023/06/03 05:20:08;;;;;;;4.97;1.20;;;11.10;99.90;;;;;;5091100;28;20040;-49
2023/06/03 05:22:35;;;;;;;3.88;1.45;;;11.10;99.90;;;;;;5092422;28;20131;-49
2023/06/03 05:25:05;;;;;;;4.68;1.40;;;10.20;99.90;;;;;;5061956;28;20122;-46
2023/06/03 05:27:30;;;;;;;3.35;1.20;;;11.20;99.90;;;;;;5090678;28;20859;-47
2023/06/03 05:29:56;;;;;;;3.50;1.30;;;11.20;99.90;;;;;;5092260;28;20445;-46
2023/06/03 05:32:22;;;;;;;6.22;1.45;;;11.40;99.90;;;;;;5092153;28;20518;-51
2023/06/03 05:34:48;;;;;;;4.30;1.60;;;11.40;99.90;;;;;;5094144;28;20055;-47
2023/06/03 05:37:14;;;;;;;3.03;1.10;;;11.40;99.90;;;;;;5091992;28;20047;-46
2023/06/03 05:39:39;;;;;;;4.30;1.25;;;11.70;99.90;;;;;;5092314;28;20040;-48
2023/06/03 05:42:05;;;;;;;3.88;1.30;;;11.70;99.90;;;;;;5092942;28;20032;-48
2023/06/03 05:44:31;;;;;;;3.45;1.40;;;11.90;99.90;;;;;;5091127;28;20052;-47
2023/06/03 05:46:57;;;;;;;6.88;2.00;;;12.10;99.90;;;;;;5091140;28;20225;-51
2023/06/03 05:49:22;;;;;;;5.05;1.20;;;12.10;99.90;;;;;;5091661;28;20051;-51
2023/06/03 05:51:48;;;;;;;4.25;1.27;;;12.30;99.90;;;;;;5091723;28;20100;-57
2023/06/03 05:54:14;;;;;;;3.78;1.15;;;12.30;99.90;;;;;;5091056;28;20035;-57
2023/06/03 05:56:40;;;;;;;4.00;1.17;;;12.40;99.90;;;;;;5090124;28;20040;-56
2023/06/03 05:59:05;;;;;;;6.30;1.15;;;12.60;99.90;;;;;;5074454;28;20676;-57
2023/06/03 06:01:33;;;;;;;3.35;1.40;;;12.70;99.90;;;;;;5090763;28;20079;-56
2023/06/03 06:03:59;;;;;;;4.18;1.40;;;12.80;99.90;;;;;;5090264;28;20718;-56
2023/06/03 06:06:25;;;;;;;5.07;1.30;;;12.90;99.90;;;;;;5090869;28;21272;-57
2023/06/03 06:08:50;;;;;;;5.07;1.73;;;12.90;99.90;;;;;;5091817;28;20046;-57
2023/06/03 06:11:16;;;;;;;5.82;1.35;;;13.00;99.90;;;;;;5089447;28;20108;-56
2023/06/03 06:13:42;;;;;;;3.97;1.30;;;13.10;99.90;;;;;;5089910;28;20093;-57
2023/06/03 06:16:08;;;;;;;3.28;1.33;;;13.40;99.90;;;;;;5072250;28;20039;-56
2023/06/03 06:18:34;;;;;;;3.33;1.20;;;13.80;99.90;;;;;;5089950;28;20051;-57
2023/06/03 06:21:00;;;;;;;3.30;1.40;;;14.60;99.90;;;;;;5090209;28;20039;-56
2023/06/03 06:23:26;;;;;;;4.50;1.35;;;14.70;99.90;;;;;;5091126;28;20043;-56
2023/06/03 06:25:53;;;;;;;7.78;1.20;;;15.00;99.90;;;;;;5091133;28;20031;-56
2023/06/03 06:28:20;;;;;;;5.50;1.40;;;15.10;99.90;;;;;;5089976;28;20047;-57
2023/06/03 06:30:47;;;;;;;2.45;1.08;;;15.10;99.90;;;;;;5090350;28;20177;-58
2023/06/03 06:33:16;;;;;;;4.30;1.13;;;15.20;99.90;;;;;;5090650;28;20370;-57
2023/06/03 06:35:43;;;;;;;2.80;1.17;;;15.50;99.90;;;;;;5090875;28;20054;-57
2023/06/03 06:38:10;;;;;;;3.75;1.05;;;15.50;99.90;;;;;;5090619;28;20047;-57
2023/06/03 06:40:37;;;;;;;5.20;1.15;;;15.30;99.90;;;;;;5068711;28;20412;-56
2023/06/03 06:43:03;;;;;;;4.63;1.10;;;15.50;99.90;;;;;;5071821;28;20041;-57
2023/06/03 06:45:30;;;;;;;4.03;1.40;;;15.40;99.90;;;;;;5088673;28;20059;-57
2023/06/03 06:48:06;;;;;;;11.25;1.98;;;15.60;99.90;;;;;;5072369;28;20412;-56
2023/06/03 06:50:34;;;;;;;2.95;0.95;;;16.20;99.90;;;;;;5089775;28;20051;-56
2023/06/03 06:53:01;;;;;;;4.75;1.27;;;16.70;99.90;;;;;;5089850;28;20035;-57
2023/06/03 06:55:45;;;;;;;5.18;1.30;;;17.50;99.90;;;;;;5089960;28;20048;-57
2023/06/03 06:58:11;;;;;;;2.88;0.73;;;17.80;99.90;;;;;;5088316;28;20124;-56
2023/06/03 07:00:38;;;;;;;3.83;0.95;;;19.30;99.90;;;;;;5089512;28;20047;-57
2023/06/03 07:03:13;;;;;;;5.20;1.30;;;18.40;99.90;;;;;;5088401;28;20044;-57
2023/06/03 07:05:39;;;;;;;4.43;0.90;;;19.10;99.90;;;;;;5091561;28;20043;-57
2023/06/03 07:08:06;;;;;;;2.63;0.90;;;19.60;99.90;;;;;;5089322;28;20043;-57
2023/06/03 07:10:32;;;;;;;4.03;1.10;;;20.30;99.90;;;;;;5089895;28;20065;-56
2023/06/03 07:12:58;;;;;;;3.38;1.00;;;20.90;99.90;;;;;;5088873;28;20374;-57
2023/06/03 07:15:24;;;;;;;4.70;0.93;;;21.20;99.90;;;;;;5089513;28;20051;-57
2023/06/03 07:17:51;;;;;;;3.08;1.02;;;21.60;99.90;;;;;;5089813;28;20036;-57
2023/06/03 07:20:26;;;;;;;2.08;0.70;;;22.70;99.90;;;;;;5089120;28;20083;-56
2023/06/03 07:22:52;;;;;;;7.07;1.15;;;23.20;99.90;;;;;;5087636;28;20547;-57
2023/06/03 07:25:41;;;;;;;1.80;0.90;;;23.10;99.90;;;;;;5088576;28;20040;-57
2023/06/03 07:28:11;;;;;;;3.00;0.90;;;23.20;99.90;;;;;;5089491;28;20046;-56
2023/06/03 07:30:38;;;;;;;2.67;1.00;;;22.80;99.90;;;;;;5090475;28;20404;-56
2023/06/03 07:33:07;;;;;;;4.30;1.05;;;21.60;99.90;;;;;;5088465;28;20587;-56
2023/06/03 07:35:37;;;;;;;4.65;1.00;;;20.40;99.90;;;;;;5089712;28;20047;-57
2023/06/03 07:38:04;;;;;;;5.30;1.27;;;19.40;99.90;;;;;;5089003;28;20071;-56
2023/06/03 07:40:42;;;;;;;4.05;1.02;;;18.80;99.90;;;;;;5089811;28;20047;-56
2023/06/03 07:43:08;;;;;;;5.53;0.98;;;18.30;99.90;;;;;;5088369;28;20055;-57
2023/06/03 07:45:35;;;;;;;5.18;1.15;;;17.80;99.90;;;;;;5085665;28;20063;-56
2023/06/03 07:48:03;;;;;;;5.07;1.17;;;17.40;99.90;;;;;;5058116;28;20546;-56
2023/06/03 07:50:29;;;;;;;4.93;0.90;;;17.20;99.90;;;;;;5087665;28;20458;-56
2023/06/03 07:53:03;;;;;;;6.32;1.13;;;17.20;99.90;;;;;;5090198;28;20047;-57
2023/06/03 07:55:33;;;;;;;4.45;0.90;;;17.00;99.90;;;;;;5089217;28;20103;-56
2023/06/03 07:57:59;;;;;;;2.95;0.77;;;16.80;99.90;;;;;;5073249;28;20039;-56
2023/06/03 08:00:25;;;;;;;3.55;1.15;;;16.90;99.90;;;;;;5094509;28;20051;-57
2023/06/03 08:02:51;;;;;;;4.07;0.80;;;17.20;99.90;;;;;;5094502;28;20055;-57
2023/06/03 08:05:29;;;;;;;4.63;1.20;;;17.90;99.90;;;;;;5096032;28;20031;-56
2023/06/03 08:07:55;;;;;;;3.13;0.80;;;18.30;99.90;;;;;;5092735;28;20104;-56
2023/06/03 08:10:25;;;;;;;3.78;1.10;;;19.00;99.90;;;;;;5094932;28;20047;-56
2023/06/03 08:12:51;;;;;;;2.55;0.70;;;20.30;99.90;;;;;;5094732;28;20046;-57
2023/06/03 08:15:27;;;;;;;5.88;1.00;;;20.70;99.90;;;;;;5094102;28;20046;-56
2023/06/03 08:17:55;;;;;;;2.85;1.10;;;20.70;99.90;;;;;;5093658;28;20044;-57
2023/06/03 08:20:28;;;;;;;5.95;1.10;;;21.60;99.90;;;;;;5093835;28;20046;-56
2023/06/03 08:22:57;;;;;;;5.05;1.25;;;21.60;99.90;;;;;;5092301;28;20043;-57
2023/06/03 08:25:23;;;;;;;3.45;0.82;;;22.00;99.90;;;;;;5093678;28;20505;-57
2023/06/03 08:27:50;;;;;;;4.65;1.00;;;22.20;99.90;;;;;;5094692;28;20051;-56
2023/06/03 08:30:17;;;;;;;5.57;0.98;;;22.50;99.90;;;;;;5094108;28;20051;-56
2023/06/03 08:32:43;;;;;;;5.38;1.45;;;23.20;99.90;;;;;;5094270;28;20159;-57
2023/06/03 08:35:10;;;;;;;3.90;1.00;;;23.50;99.60;;;;;;5095148;28;20046;-57
2023/06/03 08:37:37;;;;;;;11.68;2.15;;;23.60;99.80;;;;;;5094280;28;20499;-57
2023/06/03 08:40:07;;;;;;;12.10;1.70;;;23.90;98.40;;;;;;5095211;28;20043;-57
2023/06/03 08:42:38;;;;;;;4.97;1.07;;;23.80;98.00;;;;;;5095091;28;20067;-57
2023/06/03 08:45:06;;;;;;;6.55;1.00;;;23.50;98.10;;;;;;5094896;28;20067;-57
2023/06/03 08:47:50;;;;;;;6.88;1.45;;;23.30;98.50;;;;;;5075961;28;20127;-57
2023/06/03 08:50:20;;;;;;;4.20;0.90;;;23.10;97.70;;;;;;5076119;28;20151;-57
2023/06/03 08:52:47;;;;;;;2.55;0.93;;;23.40;97.80;;;;;;5092958;28;20078;-57
2023/06/03 08:55:16;;;;;;;5.43;0.90;;;23.50;97.00;;;;;;5092822;28;20054;-57
2023/06/03 08:57:48;;;;;;;2.58;0.73;;;22.90;96.50;;;;;;5094964;28;20475;-57
2023/06/03 09:00:19;;;;;;;3.28;1.05;;;22.20;97.70;;;;;;5093811;28;20848;-57
2023/06/03 09:02:46;;;;;;;3.88;0.80;;;22.00;97.80;;;;;;5094891;28;20112;-57
2023/06/03 09:05:12;;;;;;;6.43;0.80;;;22.20;97.90;;;;;;5092952;28;20115;-57
2023/06/03 09:07:39;;;;;;;2.80;1.00;;;22.30;98.30;;;;;;5093693;28;20051;-56
2023/06/03 09:10:07;;;;;;;4.00;0.80;;;22.30;97.70;;;;;;5091477;28;20036;-57
2023/06/03 09:12:34;;;;;;;4.07;0.75;;;21.80;97.30;;;;;;5092854;28;20059;-56
2023/06/03 09:15:01;;;;;;;2.15;0.80;;;21.90;96.80;;;;;;5075475;28;20054;-56
2023/06/03 09:17:29;;;;;;;3.55;0.70;;;21.70;97.10;;;;;;5091974;28;20036;-56
2023/06/03 09:19:57;;;;;;;4.88;0.80;;;21.50;97.40;;;;;;5092076;28;20043;-57
2023/06/03 09:22:25;;;;;;;1.70;0.70;;;21.10;97.80;;;;;;5092449;28;20382;-57
2023/06/03 09:24:50;;;;;;;2.55;0.60;;;20.50;97.10;;;;;;5091898;28;20048;-56
2023/06/03 09:27:16;;;;;;;1.85;0.73;;;20.80;97.60;;;;;;5093314;28;20400;-57
2023/06/03 09:29:42;;;;;;;2.97;0.75;;;20.30;97.50;;;;;;5092858;28;20382;-56
2023/06/03 09:32:08;;;;;;;4.95;1.00;;;20.40;98.40;;;;;;5092509;28;20043;-57
2023/06/03 09:34:35;;;;;;;2.10;0.65;;;20.30;97.70;;;;;;5092417;28;20047;-56
2023/06/03 09:37:08;;;;;;;6.22;1.02;;;20.10;98.00;;;;;;5094233;28;20530;-56
2023/06/03 09:39:35;;;;;;;4.72;0.90;;;20.20;97.90;;;;;;5092531;28;20101;-56
2023/06/03 09:42:01;;;;;;;4.80;1.08;;;20.20;97.20;;;;;;5093376;28;20048;-56
2023/06/03 09:44:46;;;;;;;1.55;0.80;;;19.90;97.60;;;;;;5073272;28;20135;-56
2023/06/03 09:47:12;;;;;;;2.58;0.85;;;20.10;97.40;;;;;;5073669;28;20094;-57
2023/06/03 09:49:39;;;;;;;2.58;0.70;;;20.10;97.70;;;;;;5092093;28;20260;-57
2023/06/03 09:52:10;;;;;;;2.20;0.88;;;20.30;98.20;;;;;;5094039;28;20043;-57
2023/06/03 09:54:36;;;;;;;2.08;0.80;;;20.00;97.80;;;;;;5093695;28;20454;-56
2023/06/03 09:57:12;;;;;;;3.25;0.80;;;20.30;97.40;;;;;;5075255;28;20055;-57
2023/06/03 09:59:43;;;;;;;3.38;0.90;;;20.20;97.70;;;;;;5092033;28;23849;-57
2023/06/03 10:02:11;;;;;;;2.35;0.80;;;21.40;97.10;;;;;;5094142;28;20112;-56
2023/06/03 10:04:46;;;;;;;4.80;1.10;;;20.30;97.20;;;;;;5091685;28;20598;-57
2023/06/03 10:07:14;;;;;;;11.05;1.10;;;20.30;97.40;;;;;;5093729;28;20127;-56
2023/06/03 10:09:44;;;;;;;3.42;0.60;;;20.40;97.90;;;;;;5073163;28;20051;-57
2023/06/03 10:12:11;;;;;;;3.58;0.90;;;20.60;97.70;;;;;;5092418;28;20129;-57
2023/06/03 10:14:59;;;;;;;3.65;0.95;;;20.50;96.60;;;;;;5092796;28;20043;-57
2023/06/03 10:17:26;;;;;;;4.50;1.10;;;20.70;97.50;;;;;;5092115;28;20042;-56
2023/06/03 10:19:51;;;;;;;2.78;0.93;;;20.90;96.80;;;;;;5091345;28;20036;-57
2023/06/03 10:22:19;;;;;;;2.95;0.95;;;20.90;96.20;;;;;;5090552;28;20044;-57
2023/06/03 10:24:47;;;;;;;3.05;0.80;;;20.70;96.80;;;;;;5088723;28;20086;-57
2023/06/03 10:27:15;;;;;;;4.57;1.10;;;20.80;96.60;;;;;;5091939;28;20059;-56
2023/06/03 10:29:41;;;;;;;6.38;1.08;;;20.90;97.20;;;;;;5091258;28;20492;-56
2023/06/03 10:32:10;;;;;;;1.80;0.80;;;21.30;97.30;;;;;;5090828;28;20138;-57
2023/06/03 10:34:39;;;;;;;2.50;1.00;;;21.10;96.10;;;;;;5090412;28;20043;-57
2023/06/03 10:37:06;;;;;;;3.20;0.80;;;21.00;96.20;;;;;;5090848;28;20051;-57
2023/06/03 10:39:32;;;;;;;2.15;0.63;;;21.10;96.20;;;;;;5090316;28;20039;-57
2023/06/03 10:42:03;;;;;;;3.70;0.73;;;21.20;96.20;;;;;;5090739;28;20139;-57
2023/06/03 10:44:29;;;;;;;4.70;0.90;;;21.10;95.60;;;;;;5072313;28;20055;-57
2023/06/03 10:47:07;;;;;;;4.65;1.08;;;21.00;96.50;;;;;;5091420;28;20048;-57
2023/06/03 10:49:48;;;;;;;5.30;0.90;;;21.00;95.90;;;;;;5090854;28;20039;-57
2023/06/03 10:52:48;;;;;;;3.05;0.75;;;20.90;96.70;;;;;;5090570;28;20043;-56
2023/06/03 10:55:32;;;;;;;4.00;1.15;;;21.10;95.70;;;;;;5090974;28;20090;-56
2023/06/03 10:58:17;;;;;;;2.10;0.80;;;20.90;94.70;;;;;;5089670;28;20158;-57
2023/06/03 11:00:55;;;;;;;3.72;0.73;;;21.10;96.30;;;;;;5089909;28;20032;-57
2023/06/03 11:03:23;;;;;;;1.77;0.90;;;21.00;95.00;;;;;;5071617;28;20044;-57
2023/06/03 11:05:50;;;;;;;2.88;1.05;;;21.00;95.80;;;;;;5092072;28;20052;-57
2023/06/03 11:08:53;;;;;;;3.88;0.80;;;21.20;95.90;;;;;;5091466;28;20047;-56
2023/06/03 11:11:39;;;;;;;1.73;0.50;;;21.00;96.20;;;;;;5090749;28;20100;-57
2023/06/03 11:14:06;;;;;;;2.90;1.08;;;21.10;97.10;;;;;;5091736;28;20056;-57
2023/06/03 11:16:57;;;;;;;3.95;0.80;;;21.10;96.10;;;;;;5092736;28;20416;-56
2023/06/03 11:19:34;;;;;;;5.65;1.35;;;21.30;95.80;;;;;;5091995;28;20052;-57
2023/06/03 11:22:00;;;;;;;3.88;0.95;;;21.50;95.90;;;;;;5091816;28;20070;-57
2023/06/03 11:24:38;;;;;;;2.85;0.80;;;21.50;96.30;;;;;;5067809;28;20129;-57
2023/06/03 11:27:13;;;;;;;6.40;1.00;;;20.60;96.10;;;;;;5090732;28;20470;-56
2023/06/03 11:29:48;;;;;;;3.22;0.90;;;21.40;96.30;;;;;;5090369;28;20067;-57
2023/06/03 11:32:16;;;;;;;4.32;1.05;;;21.50;95.80;;;;;;5092358;28;20080;-57
2023/06/03 11:34:43;;;;;;;2.78;0.90;;;21.50;96.60;;;;;;5095434;28;20108;-57
2023/06/03 11:37:11;;;;;;;3.17;0.80;;;21.60;96.30;;;;;;5096268;28;20040;-57
2023/06/03 11:40:07;;;;;;;2.08;0.85;;;21.40;95.40;;;;;;5094817;28;20049;-60
2023/06/03 11:42:54;;;;;;;3.40;1.08;;;21.50;95.70;;;;;;5075708;28;20077;-56
2023/06/03 11:45:20;;;;;;;4.57;0.90;;;21.40;96.10;;;;;;5093120;28;20051;-57
2023/06/03 11:48:04;;;;;;;4.43;1.00;;;21.50;96.60;;;;;;5094363;28;20055;-57
2023/06/03 11:50:32;;;;;;;3.30;0.75;;;21.60;95.20;;;;;;5093586;28;20515;-57
2023/06/03 11:52:58;;;;;;;6.53;1.52;;;21.70;95.90;;;;;;5095595;28;20054;-57
2023/06/03 11:55:29;;;;;;;6.38;0.88;;;21.50;96.70;;;;;;5093939;28;20210;-57
2023/06/03 11:58:06;;;;;;;3.17;1.05;;;21.70;96.10;;;;;;5095105;28;20081;-57
2023/06/03 12:00:32;;;;;;;6.32;0.85;;;21.60;95.00;;;;;;5094202;28;20580;-57
2023/06/03 12:02:58;;;;;;;10.98;1.27;;;21.60;94.70;;;;;;5077294;28;20062;-57
2023/06/03 12:05:23;;;;;;;2.22;0.90;;;21.50;94.80;;;;;;5073733;28;20048;-57
2023/06/03 12:07:54;;;;;;;14.38;1.20;;;21.70;95.80;;;;;;5094635;28;20043;-56
2023/06/03 12:10:20;;;;;;;3.65;0.70;;;21.60;95.20;;;;;;5095001;28;21642;-57
2023/06/03 12:12:53;;;;;;;2.83;0.82;;;21.70;96.00;;;;;;5093727;28;20134;-57
2023/06/03 12:15:19;;;;;;;3.42;0.90;;;21.60;95.80;;;;;;5095082;28;20054;-57
2023/06/03 12:17:45;;;;;;;5.22;1.05;;;20.90;95.30;;;;;;5094520;28;20047;-57
2023/06/03 12:20:25;;;;;;;3.35;0.80;;;21.40;94.30;;;;;;5075231;28;20147;-57
2023/06/03 12:23:01;;;;;;;1.48;0.73;;;21.40;94.40;;;;;;5094000;28;20051;-57
2023/06/03 12:25:27;;;;;;;3.17;0.80;;;21.30;94.80;;;;;;5093832;28;20109;-57
2023/06/03 12:27:54;;;;;;;7.28;1.48;;;21.50;94.60;;;;;;5095571;28;20417;-57
2023/06/03 12:30:33;;;;;;;2.60;1.00;;;21.70;95.40;;;;;;5095713;28;20039;-56
2023/06/03 12:33:00;;;;;;;3.35;0.80;;;21.30;94.80;;;;;;5076659;28;20507;-57
2023/06/03 12:35:27;;;;;;;4.30;0.98;;;21.50;94.10;;;;;;5094164;28;20046;-56
2023/06/03 12:38:04;;;;;;;4.78;0.85;;;21.50;94.40;;;;;;5077199;28;20069;-57
2023/06/03 12:40:30;;;;;;;3.47;0.90;;;21.30;95.20;;;;;;5077371;28;20696;-57
2023/06/03 12:42:57;;;;;;;1.70;0.73;;;21.30;94.60;;;;;;5095243;28;20044;-58
2023/06/03 12:45:24;;;;;;;5.20;0.80;;;21.80;94.70;;;;;;5092865;28;20425;-57
2023/06/03 12:47:50;;;;;;;5.18;1.00;;;21.30;94.90;;;;;;5093910;28;20624;-57
2023/06/03 12:50:18;;;;;;;1.77;0.70;;;21.40;95.90;;;;;;5093446;28;20093;-56
2023/06/03 12:52:44;;;;;;;2.72;0.80;;;21.40;95.90;;;;;;5093473;28;20410;-56
2023/06/03 12:55:12;;;;;;;2.15;1.00;;;21.40;95.50;;;;;;5093352;28;20039;-56
2023/06/03 12:57:40;;;;;;;3.60;1.00;;;21.70;95.20;;;;;;5094897;28;20162;-56